Terminal Aerodrome Forecast
Issued by NWS Cleveland, OH

Home | Current Version | Previous Version | Graphics & Text | Print | Product List | Glossary On
Versions: 1 2 3 4 5 6 7 8 9 10 11 12 13 14 15 16 17 18 19 20 21 22 23 24 25 26
000
FTUS41 KCLE 252000 AAA
TAFCLE
TAF AMD
KCLE 252047Z 2521/2624 03006KT P6SM BKN200
     FM260000 03006KT P6SM OVC080
     FM261000 03006KT 3SM -SN OVC025
     FM261200 03008KT 1 1/2SM -SN BR OVC015
     FM261800 36008KT 5SM -SN BR OVC015=

USA.gov is the U.S. government's official web portal to all federal, state and local government web resources and services.